Terminal Aerodrome Forecast
Issued by NWS Sterling, VA

Current Version | Previous Version | Graphics & Text | Print | Product List | Glossary On
Versions: 1 2 3 4 5 6 7 8 9 10 11 12 13 14 15 16 17 18 19 20 21 22 23 24 25 26 27 28 29 30
000
FTUS41 KLWX 051720
TAFDCA
TAF
KDCA 051720Z 0518/0618 35010G18KT 1/2SM SN OVC005
     FM052100 35008G16KT 2SM -SN OVC015
     FM060000 34008KT 6SM -SN BKN025
     FM060300 35008KT P6SM FEW250=

USA.gov is the U.S. government's official web portal to all federal, state and local government web resources and services.